Latest Weather Observations for Cape Willoughby

IDS60801

Issued at 1:31 pm CDT Tuesday 24 January 2017 (issued every 30 minutes, with the page automatically refreshed every 10 minutes)

About weather observations | Map of weather stations | Latest weather observations for SA | Other Formats
Station Details ID: 022803 Name: CAPE WILLOUGHBY Lat: -35.84 Lon: 138.13 Height: 55.0 m
Data from the previous 72 hours. | See also: Recent months at Cape Willoughby
Date/Time
CDT
Temp
°C
App
Temp
°C
Dew
Point
°C
Rel
Hum
%
Delta-T
°C
Wind Press
QNH
hPa
Press
MSL
hPa
Rain since
9am
mm
Dir  Spd
km/h
Gust
km/h
Spd
kts
Gust
kts
24/01:30pm 18.4 13.3 10.5 60 4.2 S 28 35 15 19 1019.6 1019.5 0.0
24/01:00pm 18.0 13.4 10.9 63 3.8 S 26 32 14 17 1019.6 1019.5 0.0
24/12:30pm 18.3 13.8 11.4 64 3.8 S 26 33 14 18 1019.3 1019.2 0.0
24/12:00pm 17.9 13.2 12.1 69 3.2 S 28 35 15 19 1018.9 1018.8 0.0
24/11:30am 18.3 13.7 10.9 62 4.0 S 26 32 14 17 1018.7 1018.6 0.0
24/11:00am 18.2 14.3 10.8 62 4.0 S 22 28 12 15 1018.7 1018.6 0.0
24/10:30am 17.7 13.1 9.8 60 4.2 S 24 33 13 18 1018.4 1018.3 0.0
24/10:00am 17.6 13.5 11.4 67 3.4 S 24 30 13 16 1018.2 1018.1 0.0
24/09:30am 17.8 13.6 11.1 65 3.6 S 24 32 13 17 1017.9 1017.8 0.0
24/09:00am 17.3 11.8 10.4 64 3.7 S 30 39 16 21 1017.3 1017.2 -
24/08:30am 17.2 11.5 11.0 67 3.3 S 32 41 17 22 1016.6 1016.5 -
24/08:00am 17.4 11.3 11.9 70 3.0 S 35 43 19 23 1015.9 1015.8 -
24/07:30am 17.2 11.7 12.3 73 2.7 S 33 43 18 23 1015.3 1015.2 -
24/07:00am 17.3 12.2 12.0 71 2.9 S 30 37 16 20 1014.9 1014.8 -
24/06:30am 17.3 13.6 12.8 75 2.5 S 24 35 13 19 1014.4 1014.3 -
24/06:00am 17.4 12.3 11.9 70 3.0 S 30 41 16 22 1013.8 1013.7 -
24/05:30am 17.3 10.7 12.6 74 2.6 SSW 39 48 21 26 1013.2 1013.1 -
24/05:00am 17.7 12.3 12.8 73 2.7 SSW 33 43 18 23 1012.7 1012.6 -
24/04:30am 17.8 11.7 12.9 73 2.7 SSW 37 50 20 27 1012.5 1012.4 -
24/04:00am 17.9 11.7 12.8 72 2.9 SSW 37 52 20 28 1012.0 1011.9 -
24/03:56am 17.8 12.6 12.7 72 2.8 SSW 32 50 17 27 1012.1 1012.0 -
24/03:30am 17.9 11.1 13.0 73 2.8 SSW 41 52 22 28 1011.7 1011.6 -
24/03:00am 17.8 10.2 12.5 71 3.0 SSW 44 56 24 30 1011.2 1011.1 -
24/02:00am 18.3 13.4 15.2 82 1.8 SW 35 43 19 23 1010.8 1010.7 -
24/01:30am 18.3 13.1 15.6 84 1.6 SW 37 52 20 28 1010.9 1010.8 -
24/01:00am 18.4 13.6 15.6 84 1.7 SW 35 46 19 25 1010.7 1010.6 -
24/12:30am 18.3 13.2 15.9 86 1.4 SW 37 48 20 26 1010.3 1010.2 -
24/12:00am 18.0 14.7 16.0 88 1.2 SW 28 41 15 22 1010.1 1010.0 -
 
Date/Time
CDT
Temp
°C
App
Temp
°C
Dew
Point
°C
Rel
Hum
%
Delta-T
°C
Wind Press
QNH
hPa
Press
MSL
hPa
Rain since
9am
mm
Dir  Spd
km/h
Gust
km/h
Spd
kts
Gust
kts
23/08:30pm 20.5 21.0 19.3 93 0.8 WSW 15 26 8 14 1006.4 1006.2 2.6
23/08:00pm 21.3 21.6 20.3 94 0.6 WNW 19 28 10 15 1005.5 1005.3 2.6
23/07:30pm 20.9 21.8 20.1 95 0.5 NNW 15 19 8 10 1004.9 1004.7 2.6
23/07:00pm 21.1 21.2 20.3 95 0.5 NNW 20 28 11 15 1004.8 1004.6 2.6
23/06:30pm 21.1 21.1 20.1 94 0.6 NNW 20 26 11 14 1004.5 1004.3 2.6
23/06:00pm 21.0 20.9 20.0 94 0.6 NW 20 28 11 15 1004.1 1003.9 2.6
23/05:30pm 20.8 19.5 19.8 94 0.6 NNW 26 33 14 18 1003.7 1003.5 2.6
23/05:00pm 20.5 17.2 19.3 93 0.8 NNW 35 44 19 24 1003.7 1003.5 2.6
23/04:30pm 20.2 18.1 19.0 93 0.8 NNW 28 37 15 20 1004.6 1004.4 2.4
23/04:00pm 19.6 17.5 18.1 91 0.9 NNW 26 32 14 17 1005.0 1004.8 2.2
23/03:30pm 19.7 17.8 17.7 88 1.2 NNW 24 30 13 16 1005.0 1004.8 1.6
23/03:00pm 21.2 23.3 18.2 83 1.9 WNW 4 6 2 3 1004.9 1004.7 0.8
23/02:30pm 21.3 22.9 18.3 83 1.9 NNW 7 9 4 5 1005.0 1004.8 0.0
23/02:00pm 21.8 24.0 18.4 81 2.1 NNW 4 6 2 3 1005.1 1004.9 0.0
23/01:30pm 21.2 23.5 17.6 80 2.2 E 2 6 1 3 1005.3 1005.1 0.0
23/01:00pm 21.3 22.8 17.5 79 2.3 SW 6 9 3 5 1006.2 1006.0 0.0
23/12:30pm 22.9 24.8 16.7 68 3.8 NE 2 4 1 2 1005.8 1005.6 0.0
23/12:00pm 23.1 24.1 16.4 66 4.1 NNE 6 7 3 4 1005.5 1005.3 0.0
23/11:30am 22.9 24.6 16.2 66 4.1 - 2 6 1 3 1005.6 1005.4 0.0
23/11:00am 21.9 21.0 17.7 77 2.6 SW 19 24 10 13 1005.7 1005.5 0.0
23/10:30am 22.9 23.6 15.5 63 4.5 SW 6 11 3 6 1005.4 1005.2 0.0
23/10:00am 22.8 23.5 15.6 64 4.3 SE 6 7 3 4 1004.6 1004.4 0.0
23/09:30am 21.9 22.7 16.4 71 3.4 SSE 7 9 4 5 1004.7 1004.5 0.0
23/09:00am 22.1 24.0 16.6 71 3.4 SE 2 6 1 3 1005.4 1005.2 -
23/08:30am 21.8 22.3 17.4 76 2.7 SW 11 17 6 9 1005.3 1005.1 -
23/08:00am 21.3 22.5 17.3 78 2.5 SSW 7 11 4 6 1004.9 1004.7 -
23/07:30am 21.8 23.6 17.4 76 2.7 SSE 4 9 2 5 1004.9 1004.7 -
23/07:00am 21.1 22.5 17.3 79 2.3 SSW 6 9 3 5 1004.7 1004.5 -
23/06:30am 21.4 22.5 17.2 77 2.6 NE 7 11 4 6 1004.4 1004.2 -
23/06:00am 21.0 22.4 17.8 82 2.0 NE 7 11 4 6 1004.5 1004.3 -
23/05:30am 20.7 21.4 17.9 84 1.7 NNE 11 13 6 7 1004.5 1004.3 -
23/05:00am 20.6 21.6 17.8 84 1.7 NNE 9 13 5 7 1004.7 1004.5 -
23/04:30am 20.6 20.9 17.8 84 1.7 NE 13 15 7 8 1004.8 1004.6 -
23/04:00am 20.7 21.7 17.7 83 1.9 ENE 9 13 5 7 1005.1 1004.9 -
23/03:30am 20.9 21.7 18.1 84 1.7 NE 11 15 6 8 1005.7 1005.5 -
23/03:00am 20.7 21.7 17.7 83 1.9 NNE 9 11 5 6 1006.0 1005.8 -
23/02:30am 20.6 22.1 18.0 85 1.6 NNE 7 13 4 7 1006.6 1006.4 -
23/02:00am 20.3 21.4 18.1 87 1.4 NE 9 11 5 6 1006.8 1006.6 -
23/01:30am 20.3 21.7 17.9 86 1.5 N 7 9 4 5 1007.3 1007.1 -
23/01:00am 20.4 21.9 17.6 84 1.7 SSE 6 6 3 3 1007.7 1007.5 -
23/12:30am 20.3 21.6 17.5 84 1.7 S 7 9 4 5 1007.6 1007.4 -
23/12:00am 20.2 20.4 17.6 85 1.6 SW 13 17 7 9 1008.3 1008.1 -
 
Date/Time
CDT
Temp
°C
App
Temp
°C
Dew
Point
°C
Rel
Hum
%
Delta-T
°C
Wind Press
QNH
hPa
Press
MSL
hPa
Rain since
9am
mm
Dir  Spd
km/h
Gust
km/h
Spd
kts
Gust
kts
22/11:30pm 20.4 19.7 17.4 83 1.8 SSW 17 19 9 10 1008.3 1008.1 -
22/11:00pm 20.4 19.7 17.4 83 1.8 SW 17 19 9 10 1008.6 1008.4 -
22/10:30pm 20.7 20.0 17.3 81 2.1 SSW 17 22 9 12 1008.6 1008.4 -
22/10:00pm 20.9 17.8 16.5 76 2.7 SSW 28 33 15 18 1008.4 1008.2 -
22/09:30pm 21.5 18.0 16.5 73 3.0 SW 30 39 16 21 1008.3 1008.1 -
22/09:00pm 22.0 19.5 16.1 69 3.6 SW 24 32 13 17 1008.8 1008.6 -
22/08:30pm 23.2 22.2 14.5 58 5.2 SW 13 20 7 11 1009.3 1009.1 -
22/08:00pm 24.1 23.6 13.9 53 6.0 WNW 9 15 5 8 1009.5 1009.3 -
22/07:30pm 24.5 25.5 14.3 53 6.1 SW 2 4 1 2 1009.3 1009.1 -
22/07:00pm 24.0 24.5 11.7 46 7.0 CALM 0 0 0 0 1009.2 1009.0 -
22/06:30pm 24.2 24.6 13.7 52 6.2 ENE 4 6 2 3 1009.1 1008.9 -
22/06:00pm 24.3 25.5 15.0 56 5.6 ENE 2 6 1 3 1009.0 1008.8 -
22/05:30pm 24.0 25.9 15.8 60 5.0 CALM 0 0 0 0 1009.2 1009.0 -
22/05:00pm 24.1 25.5 16.4 62 4.7 ENE 4 7 2 4 1009.4 1009.2 -
22/04:30pm 24.0 25.3 17.0 65 4.3 E 6 9 3 5 1009.7 1009.5 -
22/04:00pm 23.7 26.0 16.7 65 4.3 CALM 0 6 0 3 1009.9 1009.8 -
22/03:30pm 23.5 26.1 18.4 73 3.2 ENE 2 6 1 3 1010.0 1009.9 -
22/03:00pm 24.0 25.8 19.5 76 2.9 ENE 9 11 5 6 1009.9 1009.8 -
22/02:30pm 23.1 24.9 18.4 75 3.0 ENE 6 9 3 5 1010.2 1010.1 -
22/02:00pm 22.8 24.3 18.1 75 2.9 ENE 7 9 4 5 1010.5 1010.4 -
22/01:30pm 23.3 24.5 18.2 73 3.2 ENE 9 9 5 5 1010.8 1010.7 -
22/01:00pm 23.7 24.8 18.1 71 3.5 NNE 9 11 5 6 1011.2 1011.1 -
22/12:30pm 23.6 24.8 18.3 72 3.3 NE 9 13 5 7 1011.7 1011.6 -
22/12:00pm 23.0 24.1 18.1 74 3.1 NE 9 13 5 7 1011.9 1011.8 -
22/11:30am 22.6 23.1 17.5 73 3.2 NE 11 15 6 8 1012.1 1012.0 -
22/11:00am 22.7 22.9 17.6 73 3.2 NE 13 17 7 9 1012.3 1012.2 -
22/10:30am 22.3 22.8 17.4 74 3.0 NE 11 17 6 9 1012.6 1012.5 -
22/10:00am 21.7 20.3 17.1 75 2.8 NE 20 24 11 13 1012.3 1012.2 0.0
22/09:30am 21.3 20.0 16.7 75 2.8 ENE 19 22 10 12 1012.8 1012.7 0.0
22/09:00am 21.2 19.6 16.6 75 2.8 ENE 20 24 11 13 1012.9 1012.8 0.0
22/08:30am 20.5 18.9 16.5 78 2.4 ENE 20 28 11 15 1013.2 1013.1 0.0
22/08:00am 19.9 17.7 16.0 78 2.3 ENE 22 28 12 15 1012.9 1012.8 0.0
22/07:30am 19.3 16.7 16.0 81 2.0 ENE 24 30 13 16 1012.7 1012.6 0.0
22/07:00am 18.6 19.2 15.8 84 1.7 NE 7 11 4 6 1012.8 1012.7 0.0
22/06:30am 18.2 17.3 15.8 86 1.4 ENE 15 19 8 10 1012.3 1012.2 0.0
22/06:00am 18.0 16.2 15.6 86 1.4 NE 19 24 10 13 1012.1 1012.0 0.0
22/05:30am 18.0 16.7 15.8 87 1.3 NE 17 22 9 12 1012.1 1012.0 0.0
22/05:00am 17.8 16.5 15.8 88 1.2 NE 17 20 9 11 1012.3 1012.2 0.0
22/04:30am 18.1 16.5 15.9 87 1.3 NE 19 24 10 13 1012.4 1012.3 0.0
22/04:00am 18.2 15.9 15.6 85 1.5 ENE 22 26 12 14 1012.5 1012.4 0.0
22/03:30am 18.2 15.8 15.5 84 1.6 ENE 22 28 12 15 1012.7 1012.6 0.0
22/03:00am 18.3 15.1 15.4 83 1.7 ENE 26 32 14 17 1013.1 1013.0 0.0
22/02:30am 18.1 14.9 15.2 83 1.7 ENE 26 30 14 16 1013.4 1013.3 0.0
22/02:00am 18.0 15.2 15.3 84 1.6 ENE 24 30 13 16 1013.8 1013.7 0.0
22/01:30am 17.9 15.0 15.2 84 1.6 ENE 24 30 13 16 1014.0 1013.9 0.0
22/01:00am 18.0 14.8 15.3 84 1.6 E 26 32 14 17 1014.1 1014.0 0.0
22/12:30am 17.8 14.1 14.9 83 1.7 E 28 32 15 17 1014.1 1014.0 0.0
22/12:00am 17.8 14.9 15.1 84 1.6 E 24 32 13 17 1014.3 1014.2 0.0
 
Date/Time
CDT
Temp
°C
App
Temp
°C
Dew
Point
°C
Rel
Hum
%
Delta-T
°C
Wind Press
QNH
hPa
Press
MSL
hPa
Rain since
9am
mm
Dir  Spd
km/h
Gust
km/h
Spd
kts
Gust
kts
21/11:30pm 17.8 14.0 14.7 82 1.8 ESE 28 35 15 19 1014.2 1014.1 0.0
21/11:00pm 17.8 13.5 14.5 81 1.9 ESE 30 35 16 19 1014.7 1014.6 0.0
21/10:30pm 17.9 14.4 14.4 80 2.0 ESE 26 32 14 17 1015.3 1015.2 0.0
21/10:00pm 17.7 13.6 13.8 78 2.2 SE 28 32 15 17 1015.4 1015.3 0.0
21/09:30pm 17.7 13.6 13.8 78 2.2 SE 28 33 15 18 1015.2 1015.1 0.0
21/09:00pm 17.9 13.8 13.8 77 2.3 SE 28 33 15 18 1015.3 1015.2 0.0
21/08:30pm 18.0 13.8 13.5 75 2.6 SSE 28 32 15 17 1015.3 1015.2 0.0
21/08:00pm 18.1 14.2 13.4 74 2.7 SSE 26 35 14 19 1015.0 1014.9 0.0
21/07:30pm 18.4 14.3 12.8 70 3.1 SSE 26 33 14 18 1014.7 1014.6 0.0
21/07:00pm 18.5 15.3 13.1 71 3.1 SSE 22 30 12 16 1014.5 1014.4 0.0
21/06:30pm 18.6 15.7 13.9 74 2.7 SSE 22 28 12 15 1014.3 1014.2 0.0
21/06:00pm 18.4 15.3 13.3 72 2.9 SSE 22 28 12 15 1014.3 1014.2 0.0
21/05:30pm 18.6 15.9 13.0 70 3.2 SSE 19 24 10 13 1014.4 1014.3 0.0
21/05:00pm 18.7 15.7 12.7 68 3.4 SSE 20 24 11 13 1014.7 1014.6 0.0
21/04:30pm 18.5 15.4 12.3 67 3.4 SSE 20 26 11 14 1014.9 1014.8 0.0
21/04:00pm 19.6 16.2 12.6 64 3.9 SE 22 26 12 14 1015.1 1015.0 0.0
21/03:30pm 19.9 17.2 12.9 64 4.0 SE 19 22 10 12 1015.0 1014.9 0.0
21/03:00pm 19.8 16.7 12.3 62 4.2 SE 20 24 11 13 1015.4 1015.3 0.0
21/02:30pm 19.4 15.8 11.7 61 4.3 SE 22 26 12 14 1015.2 1015.1 0.0
21/02:00pm 19.3 15.6 11.6 61 4.2 ESE 22 26 12 14 1015.3 1015.2 0.0

Other Formats:

Comma delimited format used in spreadsheet applications
http://www.bom.gov.au/fwo/IDS60801/IDS60801.94822.axf

JavaScript Object Notation format (JSON) in row-major order
http://www.bom.gov.au/fwo/IDS60801/IDS60801.94822.json